createdAt,value
2022-10-29T00:01:06.225Z,58.72
2022-10-29T00:03:40.586Z,62.63
2022-10-29T00:06:12.024Z,64.24
2022-10-29T00:08:41.555Z,63.64
2022-10-29T00:11:13.466Z,62.48
2022-10-29T00:13:42.999Z,60.83
2022-10-29T00:16:10.773Z,60.56
2022-10-29T00:18:40.298Z,58.35
2022-10-29T00:21:11.181Z,59.26
2022-10-29T00:23:39.025Z,63.48
2022-10-29T00:26:07.564Z,66.17
2022-10-29T00:28:36.129Z,64.71
2022-10-29T00:31:19.080Z,62.79
2022-10-29T00:33:47.134Z,61.79
2022-10-29T00:36:24.541Z,60.68
2022-10-29T00:38:52.917Z,61.26
2022-10-29T00:41:27.181Z,60.32
2022-10-29T00:44:29.044Z,58.14
2022-10-29T00:47:10.532Z,58.58
2022-10-29T00:49:39.733Z,63.98
2022-10-29T00:52:09.426Z,64.72
2022-10-29T00:54:42.764Z,63.94
2022-10-29T00:57:20.969Z,62.19
2022-10-29T00:59:50.314Z,61.33
2022-10-29T01:02:18.774Z,61.44
2022-10-29T01:04:47.144Z,61.46
2022-10-29T01:07:15.347Z,60.90
2022-10-29T01:09:43.325Z,60.22
2022-10-29T01:12:35.463Z,60.12
2022-10-29T01:15:06.510Z,60.01
2022-10-29T01:18:09.993Z,58.17
2022-10-29T01:21:08.727Z,58.64
2022-10-29T01:23:50.495Z,63.20
2022-10-29T01:27:00.115Z,64.91
2022-10-29T01:29:34.132Z,63.05
2022-10-29T01:32:11.252Z,60.29
2022-10-29T01:34:43.785Z,58.04
2022-10-29T01:37:21.796Z,58.57
2022-10-29T01:39:58.531Z,63.71
2022-10-29T01:42:37.130Z,65.19
2022-10-29T01:45:32.185Z,63.07
2022-10-29T01:48:04.671Z,61.60
2022-10-29T01:50:34.351Z,60.13
2022-10-29T01:53:05.061Z,58.63
2022-10-29T01:55:37.373Z,58.57
2022-10-29T01:58:07.009Z,63.24
2022-10-29T02:00:50.385Z,65.01
2022-10-29T02:03:30.185Z,63.14
2022-10-29T02:06:52.736Z,62.31
2022-10-29T02:09:30.353Z,61.10
2022-10-29T02:12:05.185Z,58.02
2022-10-29T02:15:04.390Z,58.37
2022-10-29T02:17:33.749Z,63.57
2022-10-29T02:20:11.935Z,63.43
2022-10-29T02:22:39.779Z,61.67
2022-10-29T02:25:08.683Z,60.64
2022-10-29T02:27:37.316Z,59.93
2022-10-29T02:30:06.240Z,60.00
2022-10-29T02:32:34.123Z,60.30
2022-10-29T02:35:02.221Z,59.85
2022-10-29T02:37:30.130Z,60.05
2022-10-29T02:39:58.129Z,58.23
2022-10-29T02:42:26.051Z,58.81
2022-10-29T02:44:53.845Z,64.35
2022-10-29T02:47:21.777Z,65.40
2022-10-29T02:49:49.571Z,63.97
2022-10-29T02:52:17.405Z,62.39
2022-10-29T02:54:45.262Z,61.49
2022-10-29T02:57:13.089Z,61.04
2022-10-29T02:59:40.935Z,60.84
2022-10-29T03:02:08.864Z,60.23
2022-10-29T03:04:39.364Z,59.77
2022-10-29T03:07:07.223Z,57.30
2022-10-29T03:09:35.160Z,56.78
2022-10-29T03:12:03.140Z,63.28
2022-10-29T03:14:31.054Z,65.42
2022-10-29T03:16:58.876Z,63.32
2022-10-29T03:19:26.880Z,61.77
2022-10-29T03:21:54.750Z,61.35
2022-10-29T03:24:22.607Z,58.26
2022-10-29T03:26:50.421Z,60.48
2022-10-29T03:29:18.249Z,65.40
2022-10-29T03:31:46.084Z,65.20
2022-10-29T03:34:13.898Z,63.83
2022-10-29T03:36:41.692Z,63.96
2022-10-29T03:39:09.476Z,63.11
2022-10-29T03:41:37.295Z,62.71
2022-10-29T03:44:05.246Z,61.95
2022-10-29T03:46:34.258Z,61.33
2022-10-29T03:49:02.082Z,60.92
2022-10-29T03:51:29.999Z,59.93
2022-10-29T03:53:57.780Z,59.12
2022-10-29T03:56:25.611Z,61.39
2022-10-29T03:58:53.398Z,64.88
2022-10-29T04:01:21.314Z,64.93
2022-10-29T04:03:49.321Z,62.37
2022-10-29T04:06:18.412Z,61.26
2022-10-29T04:08:46.314Z,60.66
2022-10-29T04:11:14.677Z,60.57
2022-10-29T04:13:42.610Z,60.94
2022-10-29T04:16:10.431Z,60.89
2022-10-29T04:18:38.277Z,62.03
2022-10-29T04:22:51.379Z,61.07
2022-10-29T04:27:21.307Z,62.28
2022-10-29T04:29:33.669Z,62.05
2022-10-29T04:32:01.433Z,61.27
2022-10-29T04:34:29.295Z,60.85
2022-10-29T04:36:57.139Z,60.08
2022-10-29T04:39:25.007Z,59.86
2022-10-29T04:41:52.820Z,59.95
2022-10-29T04:44:22.349Z,60.22
2022-10-29T04:46:50.194Z,61.41
2022-10-29T04:49:18.108Z,60.90
2022-10-29T04:51:46.003Z,60.47
2022-10-29T04:54:13.836Z,59.94
2022-10-29T04:56:41.867Z,60.75
2022-10-29T04:59:34.807Z,61.13
2022-10-29T05:02:02.638Z,60.28
2022-10-29T05:04:30.524Z,59.09
2022-10-29T05:06:58.335Z,58.05
2022-10-29T05:09:26.136Z,63.60
2022-10-29T05:11:53.974Z,63.79
2022-10-29T05:14:21.825Z,62.01
2022-10-29T05:16:49.604Z,60.51
2022-10-29T05:19:17.416Z,59.88
2022-10-29T05:21:45.277Z,58.43
2022-10-29T05:24:13.113Z,62.04
2022-10-29T05:26:40.909Z,64.22
2022-10-29T05:29:08.711Z,62.40
2022-10-29T05:31:36.514Z,60.67
2022-10-29T05:34:04.347Z,60.57
2022-10-29T05:36:32.111Z,60.18
2022-10-29T05:38:59.978Z,60.51
2022-10-29T05:41:27.931Z,60.67
2022-10-29T05:43:55.902Z,61.26
2022-10-29T05:46:23.714Z,60.26
2022-10-29T05:48:51.454Z,57.93
2022-10-29T05:51:19.320Z,60.12
2022-10-29T05:53:47.984Z,63.73
2022-10-29T05:56:16.174Z,63.94
2022-10-29T05:58:43.938Z,62.87
2022-10-29T06:01:12.046Z,61.97
2022-10-29T06:03:40.174Z,61.74
2022-10-29T06:06:08.137Z,61.32
2022-10-29T06:08:36.014Z,60.88
2022-10-29T06:11:04.692Z,60.09
2022-10-29T06:13:32.618Z,59.95
2022-10-29T06:16:00.945Z,60.11
2022-10-29T06:18:29.300Z,60.69
2022-10-29T06:21:00.830Z,60.51
2022-10-29T06:23:29.420Z,60.48
2022-10-29T06:26:01.172Z,60.57
2022-10-29T06:28:33.667Z,60.02
2022-10-29T06:31:03.368Z,60.21
2022-10-29T06:33:31.907Z,59.45
2022-10-29T06:36:01.637Z,59.58
2022-10-29T06:38:29.647Z,63.84
2022-10-29T06:40:57.626Z,63.76
2022-10-29T06:43:25.681Z,62.52
2022-10-29T06:45:53.607Z,61.99
2022-10-29T06:48:22.709Z,61.39
2022-10-29T06:50:51.400Z,61.55
2022-10-29T06:53:19.736Z,60.88
2022-10-29T06:55:47.569Z,60.55
2022-10-29T06:58:17.252Z,59.43
2022-10-29T07:00:46.098Z,61.30
2022-10-29T07:03:15.340Z,65.00
2022-10-29T07:05:43.309Z,64.35
2022-10-29T07:08:12.245Z,63.39
2022-10-29T07:10:40.477Z,61.41
2022-10-29T07:13:09.473Z,59.98
2022-10-29T07:15:37.310Z,58.86
2022-10-29T07:18:07.111Z,62.32
2022-10-29T07:20:37.987Z,64.64
2022-10-29T07:23:06.371Z,63.20
2022-10-29T07:25:36.096Z,61.42
2022-10-29T07:28:12.951Z,59.50
2022-10-29T07:30:41.572Z,60.13
2022-10-29T07:33:09.851Z,64.74
2022-10-29T07:35:38.399Z,63.97
2022-10-29T07:38:10.784Z,62.51
2022-10-29T07:40:40.939Z,60.95
2022-10-29T07:43:09.177Z,60.08
2022-10-29T07:45:37.659Z,59.95
2022-10-29T07:48:07.978Z,60.06
2022-10-29T07:50:37.897Z,58.80
2022-10-29T07:53:07.027Z,60.79
2022-10-29T07:55:35.825Z,63.35
2022-10-29T07:58:06.470Z,61.58
2022-10-29T08:00:37.976Z,60.22
2022-10-29T08:03:07.198Z,59.43
2022-10-29T08:05:35.419Z,59.11
2022-10-29T08:08:04.164Z,62.38
2022-10-29T08:10:33.416Z,61.51
2022-10-29T08:13:03.466Z,60.01
2022-10-29T08:15:33.499Z,58.86
2022-10-29T08:18:04.983Z,61.53
2022-10-29T08:20:32.864Z,64.46
2022-10-29T08:23:01.625Z,61.12
2022-10-29T08:25:30.151Z,58.38
2022-10-29T08:27:59.686Z,60.10
2022-10-29T08:30:28.338Z,63.30
2022-10-29T08:32:56.603Z,62.26
2022-10-29T08:35:24.904Z,59.24
2022-10-29T08:37:52.830Z,59.95
2022-10-29T08:40:23.603Z,63.19
2022-10-29T08:42:54.438Z,63.30
2022-10-29T08:45:30.491Z,60.27
2022-10-29T08:48:06.712Z,58.55
2022-10-29T08:50:41.375Z,61.23
2022-10-29T08:53:23.575Z,62.47
2022-10-29T08:55:51.889Z,60.08
2022-10-29T08:58:45.490Z,58.24
2022-10-29T09:01:13.667Z,60.26
2022-10-29T09:03:41.668Z,62.82
2022-10-29T09:06:31.783Z,60.89
2022-10-29T09:09:11.078Z,58.63
2022-10-29T09:11:39.135Z,59.22
2022-10-29T09:14:31.478Z,61.24
2022-10-29T09:17:19.151Z,63.78
2022-10-29T09:19:49.670Z,61.47
2022-10-29T09:23:03.937Z,57.45
2022-10-29T09:25:44.382Z,59.22
2022-10-29T09:28:59.715Z,61.13
2022-10-29T09:31:37.744Z,62.91
2022-10-29T09:34:18.265Z,58.36
2022-10-29T09:36:48.211Z,57.45
2022-10-29T09:39:31.595Z,59.94
2022-10-29T09:42:10.756Z,61.96
2022-10-29T09:44:48.341Z,62.59
2022-10-29T09:47:19.094Z,58.42
2022-10-29T09:49:49.509Z,58.17
2022-10-29T09:52:24.182Z,60.86
2022-10-29T09:54:54.036Z,62.04
2022-10-29T09:57:29.510Z,60.21
2022-10-29T10:00:01.894Z,58.24
2022-10-29T10:02:49.858Z,58.69
2022-10-29T10:05:25.342Z,60.55
2022-10-29T10:08:06.979Z,61.70
2022-10-29T10:10:39.331Z,62.86
2022-10-29T10:13:17.209Z,58.44
2022-10-29T10:15:59.131Z,57.93
2022-10-29T10:18:30.950Z,60.51
2022-10-29T10:21:01.933Z,62.32
2022-10-29T10:23:53.740Z,63.37
2022-10-29T10:26:32.917Z,59.79
2022-10-29T10:29:06.965Z,56.48
2022-10-29T10:31:34.786Z,57.55
2022-10-29T10:34:16.695Z,58.85
2022-10-29T10:37:05.344Z,60.03
2022-10-29T10:39:39.215Z,61.98
2022-10-29T10:42:15.928Z,60.94
2022-10-29T10:44:53.098Z,57.46
2022-10-29T10:47:34.007Z,57.37
2022-10-29T10:50:32.869Z,58.97
2022-10-29T10:53:15.536Z,60.47
2022-10-29T10:55:57.589Z,60.77
2022-10-29T10:58:39.210Z,60.89
2022-10-29T11:01:25.045Z,60.88
2022-10-29T11:04:19.061Z,59.98
2022-10-29T11:06:50.929Z,59.72
2022-10-29T11:09:40.384Z,59.92
2022-10-29T11:12:44.358Z,59.48
2022-10-29T11:15:15.094Z,59.82
2022-10-29T11:17:57.559Z,59.60
2022-10-29T11:20:35.477Z,59.18
2022-10-29T11:23:34.353Z,56.89
2022-10-29T11:26:13.386Z,56.43
2022-10-29T11:28:55.480Z,56.29
2022-10-29T11:31:36.560Z,56.61
2022-10-29T11:34:04.412Z,56.90
2022-10-29T11:36:43.446Z,56.94
2022-10-29T11:39:39.266Z,56.26
2022-10-29T11:42:10.011Z,56.45
2022-10-29T11:44:40.237Z,55.66
2022-10-29T11:47:38.057Z,55.89
2022-10-29T11:50:31.022Z,56.41
2022-10-29T11:53:06.478Z,57.50
2022-10-29T11:55:43.149Z,57.63
2022-10-29T11:58:37.996Z,58.07
2022-10-29T12:01:36.401Z,58.32
2022-10-29T12:04:14.929Z,58.39
2022-10-29T12:06:55.050Z,57.66
2022-10-29T12:09:57.754Z,57.75
2022-10-29T12:12:28.707Z,57.31
2022-10-29T12:15:09.184Z,57.81
2022-10-29T12:18:02.602Z,57.05
2022-10-29T12:20:51.161Z,57.17
2022-10-29T12:23:28.075Z,56.14
2022-10-29T12:26:00.739Z,56.13
2022-10-29T12:28:59.502Z,56.88
2022-10-29T12:31:31.782Z,56.77
2022-10-29T12:34:05.771Z,57.32
2022-10-29T12:36:39.944Z,57.58
2022-10-29T12:39:14.312Z,58.37
2022-10-29T12:41:51.640Z,58.67
2022-10-29T12:44:29.807Z,59.14
2022-10-29T12:47:29.998Z,59.39
2022-10-29T12:50:16.169Z,59.17
2022-10-29T12:52:50.098Z,58.85
2022-10-29T12:55:19.419Z,58.97
2022-10-29T12:57:47.485Z,58.35
2022-10-29T13:00:24.379Z,57.74
2022-10-29T13:02:54.050Z,57.29
2022-10-29T13:05:34.179Z,57.87
2022-10-29T13:08:02.101Z,57.47
2022-10-29T13:10:33.055Z,57.29
2022-10-29T13:13:19.635Z,57.51
2022-10-29T13:15:56.647Z,57.46
2022-10-29T13:18:48.876Z,56.93
2022-10-29T13:21:55.009Z,56.91
2022-10-29T13:24:23.713Z,57.19
2022-10-29T13:26:57.892Z,56.98
2022-10-29T13:29:51.404Z,56.80
2022-10-29T13:32:36.764Z,57.40
2022-10-29T13:35:18.070Z,57.98
2022-10-29T13:38:14.023Z,58.23
2022-10-29T13:41:12.015Z,58.92
2022-10-29T13:43:43.093Z,59.06
2022-10-29T13:46:13.736Z,59.08
2022-10-29T13:48:43.890Z,58.88
2022-10-29T13:51:19.630Z,59.13
2022-10-29T13:53:56.019Z,59.11
2022-10-29T13:56:49.140Z,58.42
2022-10-29T13:59:23.327Z,58.15
2022-10-29T14:02:01.366Z,57.56
2022-10-29T14:04:38.919Z,57.95
2022-10-29T14:07:14.844Z,58.14
2022-10-29T14:09:45.932Z,58.66
2022-10-29T14:12:20.696Z,59.20
2022-10-29T14:15:04.111Z,59.83
2022-10-29T14:17:32.106Z,60.14
2022-10-29T14:20:20.972Z,60.89
2022-10-29T14:22:48.775Z,61.40
2022-10-29T14:25:30.313Z,62.05
2022-10-29T14:28:32.717Z,63.68
2022-10-29T14:31:28.512Z,60.88
2022-10-29T14:34:27.381Z,57.38
2022-10-29T14:37:11.933Z,57.85
2022-10-29T14:40:05.229Z,58.72
2022-10-29T14:42:43.308Z,60.78
2022-10-29T14:45:32.013Z,61.84
2022-10-29T14:48:10.760Z,63.43
2022-10-29T14:50:45.635Z,62.09
2022-10-29T14:53:40.832Z,56.71
2022-10-29T14:56:11.977Z,57.69
2022-10-29T14:58:41.620Z,60.05
2022-10-29T15:01:20.956Z,62.17
2022-10-29T15:04:02.947Z,63.91
2022-10-29T15:06:31.032Z,60.92
2022-10-29T15:09:04.360Z,56.93
2022-10-29T15:12:08.947Z,57.99
2022-10-29T15:14:52.913Z,60.47
2022-10-29T15:17:27.551Z,65.14
2022-10-29T15:19:59.424Z,64.60
2022-10-29T15:22:40.703Z,58.46
2022-10-29T15:25:23.422Z,58.55
2022-10-29T15:27:53.287Z,61.28
2022-10-29T15:30:28.392Z,64.82
2022-10-29T15:33:01.540Z,64.30
2022-10-29T15:35:30.106Z,60.98
2022-10-29T15:37:58.029Z,57.98
2022-10-29T15:40:26.189Z,59.07
2022-10-29T15:42:55.051Z,61.40
2022-10-29T15:45:28.431Z,65.31
2022-10-29T15:48:17.858Z,63.58
2022-10-29T15:50:46.237Z,59.97
2022-10-29T15:53:16.408Z,57.77
2022-10-29T15:55:44.828Z,59.96
2022-10-29T15:58:16.118Z,62.95
2022-10-29T16:00:44.467Z,64.45
2022-10-29T16:03:16.920Z,61.28
2022-10-29T16:05:48.856Z,58.29
2022-10-29T16:08:29.968Z,60.10
2022-10-29T16:11:00.127Z,62.03
2022-10-29T16:13:30.452Z,66.34
2022-10-29T16:15:58.358Z,65.27
2022-10-29T16:18:26.840Z,61.92
2022-10-29T16:21:01.116Z,60.45
2022-10-29T16:23:28.950Z,58.69
2022-10-29T16:25:56.826Z,60.02
2022-10-29T16:28:24.728Z,63.53
2022-10-29T16:30:55.848Z,62.49
2022-10-29T16:33:23.777Z,59.89
2022-10-29T16:35:51.630Z,58.89
2022-10-29T16:38:19.431Z,61.23
2022-10-29T16:40:47.364Z,64.32
2022-10-29T16:43:15.187Z,62.31
2022-10-29T16:45:43.021Z,60.40
2022-10-29T16:48:10.923Z,58.32
2022-10-29T16:50:38.813Z,59.43
2022-10-29T16:53:10.601Z,63.01
2022-10-29T16:55:40.552Z,64.84
2022-10-29T16:58:15.149Z,63.06
2022-10-29T17:00:43.245Z,60.96
2022-10-29T17:03:13.408Z,58.80
2022-10-29T17:05:43.913Z,60.66
2022-10-29T17:08:12.897Z,64.41
2022-10-29T17:10:41.101Z,63.90
2022-10-29T17:13:11.358Z,61.64
2022-10-29T17:15:42.390Z,59.38
2022-10-29T17:18:10.949Z,59.96
2022-10-29T17:20:38.788Z,64.10
2022-10-29T17:23:07.150Z,63.68
2022-10-29T17:25:35.043Z,61.57
2022-10-29T17:28:02.862Z,60.85
2022-10-29T17:30:30.730Z,59.94
2022-10-29T17:32:58.788Z,59.53
2022-10-29T17:35:27.040Z,62.79
2022-10-29T17:37:54.924Z,64.40
2022-10-29T17:40:24.239Z,63.07
2022-10-29T17:42:52.156Z,61.77
2022-10-29T17:45:22.743Z,60.72
2022-10-29T17:47:58.106Z,58.88
2022-10-29T17:50:26.548Z,60.88
2022-10-29T17:52:55.146Z,65.78
2022-10-29T17:55:23.010Z,62.80
2022-10-29T17:57:50.981Z,61.34
2022-10-29T18:00:19.339Z,60.74
2022-10-29T18:02:51.308Z,58.78
2022-10-29T18:05:19.553Z,60.10
2022-10-29T18:07:47.510Z,64.50
2022-10-29T18:10:16.941Z,64.35
2022-10-29T18:12:44.842Z,62.21
2022-10-29T18:15:12.716Z,61.56
2022-10-29T18:17:40.938Z,59.79
2022-10-29T18:20:09.839Z,58.55
2022-10-29T18:22:37.888Z,61.93
2022-10-29T18:25:06.077Z,65.07
2022-10-29T18:27:34.025Z,63.36
2022-10-29T18:30:02.206Z,61.68
2022-10-29T18:32:30.045Z,60.86
2022-10-29T18:34:58.020Z,61.28
2022-10-29T18:37:25.920Z,60.38
2022-10-29T18:39:56.365Z,59.16
2022-10-29T18:42:24.231Z,60.24
2022-10-29T18:44:52.079Z,64.73
2022-10-29T18:47:19.906Z,64.31
2022-10-29T18:49:47.781Z,62.30
2022-10-29T18:52:15.686Z,61.22
2022-10-29T18:54:43.560Z,61.74
2022-10-29T18:57:15.350Z,60.10
2022-10-29T18:59:46.398Z,60.26
2022-10-29T19:02:14.340Z,59.75
2022-10-29T19:04:42.265Z,59.74
2022-10-29T19:07:10.112Z,63.48
2022-10-29T19:09:38.112Z,63.79
2022-10-29T19:12:06.258Z,61.58
2022-10-29T19:14:34.097Z,61.11
2022-10-29T19:17:02.008Z,61.00
2022-10-29T19:19:29.892Z,59.51
2022-10-29T19:21:57.770Z,58.67
2022-10-29T19:24:25.646Z,59.64
2022-10-29T19:26:54.188Z,65.33
2022-10-29T19:29:22.295Z,64.77
2022-10-29T19:31:50.169Z,62.88
2022-10-29T19:34:18.136Z,62.19
2022-10-29T19:36:46.008Z,60.87
2022-10-29T19:39:14.279Z,61.20
2022-10-29T19:41:42.205Z,61.06
2022-10-29T19:44:10.124Z,59.90
2022-10-29T19:46:38.075Z,59.00
2022-10-29T19:49:05.948Z,57.79
2022-10-29T19:51:33.763Z,60.79
2022-10-29T19:54:04.095Z,65.42
2022-10-29T19:56:33.086Z,65.57
2022-10-29T19:59:01.015Z,63.47
2022-10-29T20:01:29.054Z,61.29
2022-10-29T20:03:58.307Z,60.38
2022-10-29T20:06:26.276Z,60.26
2022-10-29T20:08:54.197Z,60.30
2022-10-29T20:11:22.027Z,60.35
2022-10-29T20:13:50.753Z,58.49
2022-10-29T20:16:20.557Z,60.69
2022-10-29T20:18:50.401Z,65.08
2022-10-29T20:21:18.276Z,63.07
2022-10-29T20:23:46.394Z,60.95
2022-10-29T20:26:14.325Z,60.07
2022-10-29T20:28:42.200Z,60.05
2022-10-29T20:31:27.810Z,58.27
2022-10-29T20:33:59.533Z,61.10
2022-10-29T20:36:30.728Z,65.51
2022-10-29T20:38:58.996Z,65.10
2022-10-29T20:41:28.331Z,62.84
2022-10-29T20:44:01.445Z,62.49
2022-10-29T20:46:29.811Z,60.90
2022-10-29T20:48:57.800Z,60.50
2022-10-29T20:51:26.562Z,61.03
2022-10-29T20:53:55.182Z,60.15
2022-10-29T20:56:26.334Z,57.89
2022-10-29T20:58:55.167Z,59.02
2022-10-29T21:01:24.803Z,64.79
2022-10-29T21:03:53.042Z,64.24
2022-10-29T21:06:21.535Z,62.30
2022-10-29T21:08:51.343Z,61.47
2022-10-29T21:11:20.959Z,61.05
2022-10-29T21:13:49.547Z,60.17
2022-10-29T21:16:28.084Z,58.86
2022-10-29T21:18:58.753Z,59.61
2022-10-29T21:21:29.048Z,63.88
2022-10-29T21:23:57.780Z,64.00
2022-10-29T21:26:27.966Z,62.09
2022-10-29T21:28:56.865Z,60.86
2022-10-29T21:31:24.885Z,60.18
2022-10-29T21:33:55.209Z,60.45
2022-10-29T21:36:23.694Z,59.23
2022-10-29T21:38:51.848Z,57.68
2022-10-29T21:41:19.737Z,59.79
2022-10-29T21:43:47.633Z,64.85
2022-10-29T21:46:15.517Z,65.15
2022-10-29T21:48:43.372Z,62.46
2022-10-29T21:51:13.879Z,61.84
2022-10-29T21:53:41.799Z,61.01
2022-10-29T21:56:12.865Z,58.96
2022-10-29T21:58:41.381Z,58.09
2022-10-29T22:01:13.893Z,60.30
2022-10-29T22:03:43.944Z,65.88
2022-10-29T22:06:15.340Z,65.82
2022-10-29T22:08:44.669Z,63.06
2022-10-29T22:11:13.975Z,61.42
2022-10-29T22:13:44.454Z,60.11
2022-10-29T22:16:12.677Z,57.81
2022-10-29T22:18:40.828Z,58.14
2022-10-29T22:21:14.660Z,60.43
2022-10-29T22:23:52.148Z,65.87
2022-10-29T22:26:26.173Z,65.96
2022-10-29T22:28:54.248Z,62.55
2022-10-29T22:31:23.967Z,61.61
2022-10-29T22:33:52.087Z,60.36
2022-10-29T22:36:22.799Z,60.23
2022-10-29T22:38:59.505Z,59.87
2022-10-29T22:41:29.050Z,59.32
2022-10-29T22:44:01.073Z,61.80
2022-10-29T22:46:30.229Z,65.61
2022-10-29T22:48:58.479Z,64.59
2022-10-29T22:51:28.423Z,63.05
2022-10-29T22:53:56.511Z,61.78
2022-10-29T22:56:30.836Z,60.64
2022-10-29T22:58:59.793Z,60.54
2022-10-29T23:01:31.169Z,59.95
2022-10-29T23:03:59.533Z,59.30
2022-10-29T23:06:29.453Z,59.48
2022-10-29T23:08:58.719Z,64.36
2022-10-29T23:11:28.801Z,64.48
2022-10-29T23:13:58.997Z,63.89
2022-10-29T23:16:29.115Z,62.52
2022-10-29T23:18:59.734Z,61.36
2022-10-29T23:21:28.773Z,60.34
2022-10-29T23:23:57.219Z,60.63
2022-10-29T23:26:26.267Z,60.34
2022-10-29T23:28:54.095Z,60.65
2022-10-29T23:31:27.976Z,60.12
2022-10-29T23:33:57.826Z,58.36
2022-10-29T23:36:27.821Z,57.84
2022-10-29T23:38:56.666Z,63.70
2022-10-29T23:41:25.688Z,64.73
2022-10-29T23:43:54.021Z,62.71
2022-10-29T23:46:21.969Z,61.99
2022-10-29T23:48:50.117Z,61.19
2022-10-29T23:51:18.194Z,60.92
2022-10-29T23:53:46.096Z,60.97
2022-10-29T23:56:13.913Z,60.21
2022-10-29T23:58:41.720Z,60.33
